createdAt,value
2018-05-24T00:01:00.504Z,95480.67
2018-05-24T00:03:28.877Z,95478.97
2018-05-24T00:05:57.252Z,95484.62
2018-05-24T00:08:25.686Z,95488.25
2018-05-24T00:10:54.083Z,95484.41
2018-05-24T00:13:22.535Z,95485.41
2018-05-24T00:15:50.894Z,95483.88
2018-05-24T00:18:19.270Z,95486.20
2018-05-24T00:20:47.629Z,95482.41
2018-05-24T00:23:15.982Z,95483.73
2018-05-24T00:25:44.328Z,95482.64
2018-05-24T00:28:12.752Z,95481.64
2018-05-24T00:30:41.096Z,95480.28
2018-05-24T00:33:09.466Z,95480.34
2018-05-24T00:35:37.820Z,95473.18
2018-05-24T00:38:06.166Z,95477.46
2018-05-24T00:40:34.588Z,95467.40
2018-05-24T00:43:02.926Z,95463.88
2018-05-24T00:45:31.272Z,95463.16
2018-05-24T00:47:59.617Z,95460.70
2018-05-24T00:50:27.957Z,95469.92
2018-05-24T00:52:56.353Z,95458.84
2018-05-24T00:55:36.323Z,95464.81
2018-05-24T00:58:04.674Z,95465.70
2018-05-24T01:00:33.027Z,95460.51
2018-05-24T01:03:01.436Z,95462.11
2018-05-24T01:05:29.878Z,95465.61
2018-05-24T01:07:58.233Z,95463.18
2018-05-24T01:10:26.626Z,95461.16
2018-05-24T01:12:54.976Z,95459.14
2018-05-24T01:15:23.411Z,95458.72
2018-05-24T01:17:51.781Z,95458.14
2018-05-24T01:20:20.141Z,95463.97
2018-05-24T01:22:48.526Z,95461.92
2018-05-24T01:25:16.927Z,95460.50
2018-05-24T01:27:45.305Z,95461.92
2018-05-24T01:30:13.673Z,95460.86
2018-05-24T01:32:42.019Z,95459.47
2018-05-24T01:35:10.356Z,95455.98
2018-05-24T01:37:49.502Z,95458.86
2018-05-24T01:40:18.040Z,95460.27
2018-05-24T01:42:47.324Z,95460.72
2018-05-24T01:45:15.726Z,95457.22
2018-05-24T01:47:44.100Z,95465.09
2018-05-24T01:50:12.546Z,95464.34
2018-05-24T01:52:40.966Z,95462.16
2018-05-24T01:55:09.447Z,95462.00
2018-05-24T01:57:37.836Z,95457.59
2018-05-24T02:00:06.193Z,95456.48
2018-05-24T02:02:34.554Z,95456.16
2018-05-24T02:05:02.905Z,95454.70
2018-05-24T02:07:31.411Z,95459.96
2018-05-24T02:09:59.838Z,95457.78
2018-05-24T02:12:28.197Z,95451.72
2018-05-24T02:14:56.560Z,95447.41
2018-05-24T02:17:25.831Z,95447.94
2018-05-24T02:19:54.186Z,95442.52
2018-05-24T02:22:22.617Z,95438.54
2018-05-24T02:24:50.976Z,95443.98
2018-05-24T02:27:19.436Z,95442.11
2018-05-24T02:29:47.798Z,95432.16
2018-05-24T02:32:16.193Z,95432.36
2018-05-24T02:34:44.603Z,95432.70
2018-05-24T02:37:13.021Z,95431.00
2018-05-24T02:39:41.466Z,95425.52
2018-05-24T02:42:13.646Z,95424.48
2018-05-24T02:44:42.074Z,95418.86
2018-05-24T02:47:10.528Z,95420.86
2018-05-24T02:49:38.880Z,95414.83
2018-05-24T02:52:07.305Z,95419.06
2018-05-24T02:54:35.701Z,95422.19
2018-05-24T02:57:04.089Z,95425.25
2018-05-24T02:59:32.512Z,95421.79
2018-05-24T03:02:01.871Z,95417.85
2018-05-24T03:04:30.265Z,95411.81
2018-05-24T03:06:58.654Z,95420.25
2018-05-24T03:09:27.107Z,95417.48
2018-05-24T03:11:55.527Z,95424.16
2018-05-24T03:14:24.052Z,95429.16
2018-05-24T03:16:52.510Z,95424.45
2018-05-24T03:19:21.015Z,95416.84
2018-05-24T03:21:49.430Z,95421.64
2018-05-24T03:24:17.853Z,95424.10
2018-05-24T03:26:46.285Z,95421.42
2018-05-24T03:29:14.709Z,95428.34
2018-05-24T03:31:43.175Z,95418.02
2018-05-24T03:34:11.645Z,95419.54
2018-05-24T03:36:40.027Z,95419.14
2018-05-24T03:39:08.466Z,95424.29
2018-05-24T03:41:36.848Z,95430.16
2018-05-24T03:44:05.235Z,95421.54
2018-05-24T03:46:33.641Z,95414.73
2018-05-24T03:49:02.083Z,95410.29
2018-05-24T03:51:31.536Z,95410.78
2018-05-24T03:53:59.902Z,95415.56
2018-05-24T03:56:28.392Z,95417.58
2018-05-24T03:59:01.216Z,95413.92
2018-05-24T04:04:44.492Z,95421.98
2018-05-24T04:07:13.545Z,95419.77
2018-05-24T04:09:41.949Z,95421.23
2018-05-24T04:12:10.401Z,95421.63
2018-05-24T04:14:38.772Z,95421.83
2018-05-24T04:17:07.194Z,95415.69
2018-05-24T04:19:35.645Z,95415.80
2018-05-24T04:22:04.036Z,95416.41
2018-05-24T04:24:32.452Z,95410.31
2018-05-24T04:27:00.867Z,95413.20
2018-05-24T04:29:29.356Z,95412.95
2018-05-24T04:31:57.807Z,95403.86
2018-05-24T04:34:26.316Z,95411.47
2018-05-24T04:36:54.746Z,95410.06
2018-05-24T04:39:23.158Z,95414.33
2018-05-24T04:41:51.646Z,95401.41
2018-05-24T04:44:20.134Z,95403.05
2018-05-24T04:46:48.539Z,95392.72
2018-05-24T04:49:17.019Z,95407.42
2018-05-24T04:51:45.416Z,95407.69
2018-05-24T04:54:13.812Z,95403.38
2018-05-24T04:56:42.249Z,95411.03
2018-05-24T04:59:10.659Z,95407.59
2018-05-24T05:01:39.103Z,95413.26
2018-05-24T05:04:07.553Z,95411.71
2018-05-24T05:06:35.948Z,95412.03
2018-05-24T05:09:07.045Z,95409.39
2018-05-24T05:11:35.415Z,95404.17
2018-05-24T05:14:03.802Z,95408.12
2018-05-24T05:16:32.196Z,95406.95
2018-05-24T05:19:00.561Z,95406.64
2018-05-24T05:21:29.044Z,95403.05
2018-05-24T05:23:57.503Z,95402.02
2018-05-24T05:26:25.979Z,95400.14
2018-05-24T05:28:54.450Z,95398.83
2018-05-24T05:31:22.843Z,95395.05
2018-05-24T05:33:51.368Z,95397.98
2018-05-24T05:36:19.763Z,95398.56
2018-05-24T05:38:48.271Z,95396.70
2018-05-24T05:41:16.677Z,95399.20
2018-05-24T05:43:45.125Z,95402.56
2018-05-24T05:46:13.627Z,95401.77
2018-05-24T05:48:42.039Z,95401.73
2018-05-24T05:51:10.449Z,95401.29
2018-05-24T05:53:38.905Z,95398.97
2018-05-24T05:56:08.256Z,95393.47
2018-05-24T05:58:36.706Z,95394.84
2018-05-24T06:01:05.177Z,95394.60
2018-05-24T06:03:33.579Z,95390.55
2018-05-24T06:06:01.978Z,95389.42
2018-05-24T06:08:30.384Z,95394.55
2018-05-24T06:10:58.919Z,95396.58
2018-05-24T06:13:27.339Z,95397.75
2018-05-24T06:15:55.749Z,95402.28
2018-05-24T06:18:24.181Z,95400.45
2018-05-24T06:20:53.642Z,95397.97
2018-05-24T06:23:22.161Z,95402.20
2018-05-24T06:25:50.525Z,95399.33
2018-05-24T06:28:19.009Z,95394.61
2018-05-24T06:30:47.389Z,95388.30
2018-05-24T06:33:15.749Z,95400.66
2018-05-24T06:35:44.162Z,95400.27
2018-05-24T06:38:12.577Z,95406.64
2018-05-24T06:40:40.942Z,95397.69
2018-05-24T06:43:09.365Z,95399.84
2018-05-24T06:45:37.712Z,95395.03
2018-05-24T06:48:06.135Z,95399.20
2018-05-24T06:50:34.552Z,95400.36
2018-05-24T06:53:02.895Z,95408.30
2018-05-24T06:55:33.199Z,95400.56
2018-05-24T06:58:01.582Z,95402.97
2018-05-24T07:00:29.938Z,95402.05
2018-05-24T07:02:58.293Z,95410.02
2018-05-24T07:05:26.714Z,95413.19
2018-05-24T07:07:55.123Z,95414.34
2018-05-24T07:10:23.569Z,95425.94
2018-05-24T07:12:52.090Z,95424.58
2018-05-24T07:15:20.451Z,95425.63
2018-05-24T07:17:48.857Z,95433.09
2018-05-24T07:20:17.229Z,95434.81
2018-05-24T07:22:45.596Z,95437.66
2018-05-24T07:25:13.976Z,95436.42
2018-05-24T07:27:43.317Z,95438.71
2018-05-24T07:30:11.746Z,95445.00
2018-05-24T07:32:40.170Z,95434.31
2018-05-24T07:35:08.547Z,95435.45
2018-05-24T07:37:37.034Z,95431.54
2018-05-24T07:40:05.447Z,95433.77
2018-05-24T07:42:33.869Z,95434.56
2018-05-24T07:45:02.272Z,95432.41
2018-05-24T07:47:30.698Z,95427.17
2018-05-24T07:49:59.097Z,95428.19
2018-05-24T07:52:27.485Z,95420.97
2018-05-24T07:54:55.877Z,95423.38
2018-05-24T07:57:24.217Z,95424.20
2018-05-24T07:59:52.686Z,95423.09
2018-05-24T08:02:21.066Z,95426.28
2018-05-24T08:04:49.446Z,95417.19
2018-05-24T08:07:17.881Z,95417.29
2018-05-24T08:09:46.250Z,95415.38
2018-05-24T08:12:14.642Z,95408.85
2018-05-24T08:14:43.089Z,95405.87
2018-05-24T08:17:11.387Z,95399.16
2018-05-24T08:19:39.734Z,95402.86
2018-05-24T08:22:08.099Z,95414.41
2018-05-24T08:24:36.575Z,95402.91
2018-05-24T08:27:05.013Z,95402.77
2018-05-24T08:29:33.385Z,95405.10
2018-05-24T08:32:01.761Z,95406.30
2018-05-24T08:34:30.096Z,95396.80
2018-05-24T08:36:58.539Z,95402.45
2018-05-24T08:39:26.932Z,95401.40
2018-05-24T08:41:55.347Z,95391.70
2018-05-24T08:44:23.713Z,95400.05
2018-05-24T08:46:52.089Z,95396.95
2018-05-24T08:49:20.450Z,95395.45
2018-05-24T08:51:48.820Z,95394.78
2018-05-24T08:54:17.276Z,95396.28
2018-05-24T08:56:45.656Z,95392.61
2018-05-24T08:59:14.035Z,95404.55
2018-05-24T09:01:42.699Z,95395.12
2018-05-24T09:04:11.249Z,95390.52
2018-05-24T09:06:39.882Z,95392.58
2018-05-24T09:09:08.333Z,95386.31
2018-05-24T09:11:36.635Z,95387.63
2018-05-24T09:14:04.992Z,95385.75
2018-05-24T09:16:33.611Z,95388.33
2018-05-24T09:19:01.970Z,95388.60
2018-05-24T09:21:30.367Z,95380.31
2018-05-24T09:23:58.839Z,95382.88
2018-05-24T09:26:27.195Z,95377.32
2018-05-24T09:28:55.594Z,95383.98
2018-05-24T09:31:23.987Z,95382.86
2018-05-24T09:33:52.374Z,95388.30
2018-05-24T09:36:20.833Z,95381.62
2018-05-24T09:38:49.305Z,95388.53
2018-05-24T09:41:17.673Z,95386.60
2018-05-24T09:43:46.055Z,95386.66
2018-05-24T09:46:14.440Z,95379.17
2018-05-24T09:48:42.973Z,95378.03
2018-05-24T09:51:11.399Z,95384.61
2018-05-24T09:53:39.873Z,95383.21
2018-05-24T09:56:08.280Z,95381.00
2018-05-24T09:58:36.670Z,95381.16
2018-05-24T10:01:05.084Z,95380.78
2018-05-24T10:03:33.481Z,95380.55
2018-05-24T10:06:01.943Z,95387.91
2018-05-24T10:08:33.712Z,95387.59
2018-05-24T10:11:03.205Z,95398.21
2018-05-24T10:13:31.640Z,95396.45
2018-05-24T10:16:01.260Z,95398.80
2018-05-24T10:18:29.704Z,95400.92
2018-05-24T10:20:58.268Z,95401.93
2018-05-24T10:23:27.820Z,95397.34
2018-05-24T10:25:56.238Z,95397.92
2018-05-24T10:28:24.689Z,95399.80
2018-05-24T10:30:53.115Z,95403.63
2018-05-24T10:33:22.457Z,95400.20
2018-05-24T10:35:50.839Z,95396.72
2018-05-24T10:38:19.230Z,95404.81
2018-05-24T10:40:47.612Z,95401.11
2018-05-24T10:43:16.014Z,95402.23
2018-05-24T10:45:44.420Z,95405.72
2018-05-24T10:48:12.824Z,95404.13
2018-05-24T10:50:41.228Z,95404.78
2018-05-24T10:55:41.843Z,95395.69
2018-05-24T10:58:10.270Z,95392.76
2018-05-24T11:00:38.715Z,95388.63
2018-05-24T11:03:07.211Z,95393.29
2018-05-24T11:05:35.655Z,95398.27
2018-05-24T11:08:04.035Z,95393.27
2018-05-24T11:10:32.481Z,95395.09
2018-05-24T11:13:01.953Z,95391.14
2018-05-24T11:15:30.425Z,95399.92
2018-05-24T11:17:58.850Z,95393.64
2018-05-24T11:20:28.545Z,95392.76
2018-05-24T11:22:56.933Z,95397.77
2018-05-24T11:25:25.325Z,95392.91
2018-05-24T11:27:53.768Z,95399.11
2018-05-24T11:30:23.214Z,95399.40
2018-05-24T11:32:51.697Z,95404.81
2018-05-24T11:35:20.118Z,95402.70
2018-05-24T11:37:48.594Z,95404.52
2018-05-24T11:40:17.049Z,95398.19
2018-05-24T11:42:45.465Z,95398.70
2018-05-24T11:45:13.891Z,95393.77
2018-05-24T11:47:43.354Z,95398.25
2018-05-24T11:50:12.699Z,95397.53
2018-05-24T11:52:41.249Z,95395.65
2018-05-24T11:55:09.677Z,95391.39
2018-05-24T11:57:38.082Z,95389.84
2018-05-24T12:00:06.496Z,95385.81
2018-05-24T12:02:34.916Z,95394.50
2018-05-24T12:05:03.391Z,95393.77
2018-05-24T12:07:31.825Z,95394.27
2018-05-24T12:10:00.291Z,95397.72
2018-05-24T12:12:28.700Z,95389.52
2018-05-24T12:14:57.109Z,95384.98
2018-05-24T12:17:25.594Z,95384.88
2018-05-24T12:19:54.001Z,95390.03
2018-05-24T12:22:22.391Z,95384.41
2018-05-24T12:24:50.810Z,95383.14
2018-05-24T12:27:19.187Z,95379.12
2018-05-24T12:29:47.655Z,95385.20
2018-05-24T12:32:16.171Z,95378.80
2018-05-24T12:34:44.578Z,95376.83
2018-05-24T12:37:13.005Z,95374.06
2018-05-24T12:39:41.432Z,95375.25
2018-05-24T12:42:09.881Z,95374.01
2018-05-24T12:44:38.337Z,95369.45
2018-05-24T12:47:06.745Z,95369.03
2018-05-24T12:49:35.196Z,95364.77
2018-05-24T12:52:03.626Z,95367.76
2018-05-24T12:54:32.067Z,95372.03
2018-05-24T12:57:00.491Z,95370.20
2018-05-24T12:59:28.978Z,95365.19
2018-05-24T13:01:57.392Z,95361.29
2018-05-24T13:04:25.827Z,95361.41
2018-05-24T13:06:54.225Z,95355.55
2018-05-24T13:09:22.722Z,95357.05
2018-05-24T13:11:51.141Z,95352.88
2018-05-24T13:14:19.529Z,95356.56
2018-05-24T13:16:48.071Z,95353.26
2018-05-24T13:19:16.496Z,95345.73
2018-05-24T13:21:44.920Z,95341.42
2018-05-24T13:24:13.319Z,95343.36
2018-05-24T13:26:41.746Z,95343.30
2018-05-24T13:29:10.240Z,95340.91
2018-05-24T13:31:38.628Z,95338.66
2018-05-24T13:34:07.053Z,95334.11
2018-05-24T13:36:35.473Z,95348.01
2018-05-24T13:39:04.150Z,95340.58
2018-05-24T13:41:32.699Z,95337.73
2018-05-24T13:44:01.131Z,95337.43
2018-05-24T13:46:29.586Z,95338.41
2018-05-24T13:48:58.112Z,95336.95
2018-05-24T13:51:26.591Z,95336.27
2018-05-24T13:53:55.262Z,95338.02
2018-05-24T13:56:23.746Z,95340.75
2018-05-24T13:58:52.295Z,95332.16
2018-05-24T14:01:20.797Z,95332.41
2018-05-24T14:03:49.338Z,95328.60
2018-05-24T14:06:17.924Z,95322.45
2018-05-24T14:08:46.358Z,95328.05
2018-05-24T14:11:14.967Z,95328.26
2018-05-24T14:13:43.522Z,95332.56
2018-05-24T14:16:12.014Z,95320.95
2018-05-24T14:18:40.581Z,95321.13
2018-05-24T14:21:09.168Z,95321.44
2018-05-24T14:23:37.703Z,95328.53
2018-05-24T14:26:06.247Z,95319.61
2018-05-24T14:28:34.649Z,95314.16
2018-05-24T14:31:03.159Z,95320.83
2018-05-24T14:33:31.776Z,95305.17
2018-05-24T14:36:00.276Z,95308.30
2018-05-24T14:38:28.733Z,95310.34
2018-05-24T14:40:57.277Z,95299.88
2018-05-24T14:43:25.782Z,95295.28
2018-05-24T14:45:54.341Z,95289.84
2018-05-24T14:48:22.952Z,95290.49
2018-05-24T14:50:51.425Z,95287.83
2018-05-24T14:53:19.911Z,95290.34
2018-05-24T14:55:48.533Z,95288.92
2018-05-24T14:58:16.951Z,95289.44
2018-05-24T15:00:45.539Z,95284.02
2018-05-24T15:03:13.908Z,95291.78
2018-05-24T15:05:42.356Z,95283.49
2018-05-24T15:08:10.956Z,95294.44
2018-05-24T15:10:39.526Z,95289.59
2018-05-24T15:13:07.975Z,95287.86
2018-05-24T15:15:36.472Z,95284.09
2018-05-24T15:18:04.942Z,95289.00
2018-05-24T15:20:33.526Z,95286.66
2018-05-24T15:23:03.004Z,95289.28
2018-05-24T15:25:31.540Z,95290.10
2018-05-24T15:28:00.203Z,95289.13
2018-05-24T15:30:28.727Z,95288.20
2018-05-24T15:32:57.307Z,95295.58
2018-05-24T15:35:25.932Z,95286.28
2018-05-24T15:37:54.600Z,95297.50
2018-05-24T15:40:23.028Z,95290.77
2018-05-24T15:42:54.333Z,95286.41
2018-05-24T15:45:22.836Z,95287.98
2018-05-24T15:47:51.368Z,95290.29
2018-05-24T15:50:20.032Z,95284.38
2018-05-24T15:52:48.579Z,95288.81
2018-05-24T15:55:17.112Z,95283.30
2018-05-24T15:57:45.608Z,95290.80
2018-05-24T16:00:14.178Z,95277.34
2018-05-24T16:02:42.999Z,95284.69
2018-05-24T16:05:11.662Z,95281.98
2018-05-24T16:07:40.356Z,95281.56
2018-05-24T16:10:08.945Z,95279.75
2018-05-24T16:12:37.445Z,95278.62
2018-05-24T16:15:05.962Z,95271.34
2018-05-24T16:17:34.457Z,95270.59
2018-05-24T16:20:03.076Z,95271.61
2018-05-24T16:22:31.638Z,95266.94
2018-05-24T16:25:01.096Z,95265.13
2018-05-24T16:27:29.814Z,95257.69
2018-05-24T16:29:58.351Z,95253.04
2018-05-24T16:32:26.931Z,95253.03
2018-05-24T16:34:56.438Z,95260.48
2018-05-24T16:37:25.506Z,95242.38
2018-05-24T16:39:54.576Z,95247.26
2018-05-24T16:42:23.248Z,95261.11
2018-05-24T16:44:51.922Z,95263.21
2018-05-24T16:47:20.379Z,95267.16
2018-05-24T16:49:48.842Z,95262.07
2018-05-24T16:52:17.408Z,95266.38
2018-05-24T16:54:45.947Z,95272.25
2018-05-24T16:57:14.422Z,95273.89
2018-05-24T16:59:43.763Z,95267.94
2018-05-24T17:02:13.846Z,95267.67
2018-05-24T17:04:44.819Z,95269.92
2018-05-24T17:07:16.006Z,95276.02
2018-05-24T17:09:45.072Z,95277.17
2018-05-24T17:12:13.514Z,95277.84
2018-05-24T17:14:44.091Z,95274.05
2018-05-24T17:17:12.773Z,95279.97
2018-05-24T17:19:41.277Z,95273.49
2018-05-24T17:22:09.839Z,95279.59
2018-05-24T17:24:38.285Z,95282.56
2018-05-24T17:27:06.932Z,95285.72
2018-05-24T17:29:35.345Z,95282.19
2018-05-24T17:32:04.856Z,95276.81
2018-05-24T17:34:33.338Z,95277.45
2018-05-24T17:37:01.790Z,95286.57
2018-05-24T17:39:30.328Z,95290.61
2018-05-24T17:41:59.947Z,95288.45
2018-05-24T17:44:30.587Z,95284.62
2018-05-24T17:46:59.392Z,95274.37
2018-05-24T17:49:27.880Z,95274.91
2018-05-24T17:51:56.354Z,95271.86
2018-05-24T17:54:24.838Z,95270.47
2018-05-24T17:56:53.389Z,95263.03
2018-05-24T17:59:21.778Z,95271.60
2018-05-24T18:01:50.245Z,95266.70
2018-05-24T18:04:18.764Z,95271.52
2018-05-24T18:06:47.263Z,95270.44
2018-05-24T18:09:15.782Z,95276.13
2018-05-24T18:11:44.200Z,95275.02
2018-05-24T18:14:12.724Z,95281.29
2018-05-24T18:16:41.181Z,95279.26
2018-05-24T18:19:09.741Z,95283.80
2018-05-24T18:21:38.287Z,95277.18
2018-05-24T18:24:06.724Z,95274.84
2018-05-24T18:26:35.253Z,95271.52
2018-05-24T18:29:04.670Z,95277.66
2018-05-24T18:31:33.079Z,95279.05
2018-05-24T18:34:01.505Z,95285.52
2018-05-24T18:36:30.027Z,95286.06
2018-05-24T18:38:58.721Z,95278.78
2018-05-24T18:41:27.419Z,95284.82
2018-05-24T18:43:55.983Z,95281.00
2018-05-24T18:46:25.592Z,95281.23
2018-05-24T18:48:54.057Z,95281.50
2018-05-24T18:51:22.580Z,95289.80
2018-05-24T18:53:51.337Z,95286.43
2018-05-24T18:56:19.762Z,95292.45
2018-05-24T18:58:48.186Z,95293.30
2018-05-24T19:01:16.717Z,95299.41
2018-05-24T19:03:45.142Z,95295.57
2018-05-24T19:06:13.605Z,95295.83
2018-05-24T19:08:42.030Z,95298.94
2018-05-24T19:11:10.530Z,95299.39
2018-05-24T19:13:39.037Z,95302.86
2018-05-24T19:16:07.630Z,95305.47
2018-05-24T19:18:36.186Z,95304.73
2018-05-24T19:21:04.634Z,95305.29
2018-05-24T19:23:33.126Z,95300.03
2018-05-24T19:26:01.535Z,95310.46
2018-05-24T19:28:30.072Z,95299.48
2018-05-24T19:30:59.848Z,95296.39
2018-05-24T19:33:28.448Z,95299.98
2018-05-24T19:35:57.037Z,95297.16
2018-05-24T19:38:27.509Z,95296.97
2018-05-24T19:40:56.026Z,95297.78
2018-05-24T19:43:24.444Z,95304.30
2018-05-24T19:45:52.991Z,95298.82
2018-05-24T19:48:22.050Z,95296.77
2018-05-24T19:50:50.822Z,95298.95
2018-05-24T19:53:19.708Z,95303.36
2018-05-24T19:55:48.588Z,95295.55
2018-05-24T19:58:17.215Z,95300.67
2018-05-24T20:00:45.788Z,95298.73
2018-05-24T20:03:14.277Z,95297.06
2018-05-24T20:05:42.813Z,95301.98
2018-05-24T20:08:11.242Z,95303.79
2018-05-24T20:10:39.845Z,95299.68
2018-05-24T20:13:24.625Z,95302.44
2018-05-24T20:15:53.045Z,95307.27
2018-05-24T20:18:21.483Z,95308.72
2018-05-24T20:20:50.015Z,95306.20
2018-05-24T20:23:18.515Z,95307.05
2018-05-24T20:25:47.063Z,95307.04
2018-05-24T20:28:15.449Z,95310.19
2018-05-24T20:30:43.853Z,95312.31
2018-05-24T20:33:12.310Z,95311.33
2018-05-24T20:35:40.737Z,95307.92
2018-05-24T20:38:09.461Z,95309.28
2018-05-24T20:40:37.930Z,95314.45
2018-05-24T20:43:06.386Z,95314.23
2018-05-24T20:45:34.818Z,95315.74
2018-05-24T20:48:03.269Z,95311.23
2018-05-24T20:50:31.842Z,95307.16
2018-05-24T20:53:00.347Z,95314.12
2018-05-24T20:55:28.837Z,95313.92
2018-05-24T20:57:57.223Z,95309.98
2018-05-24T21:00:25.750Z,95312.83
2018-05-24T21:02:54.271Z,95312.07
2018-05-24T21:05:22.740Z,95311.84
2018-05-24T21:07:51.186Z,95311.27
2018-05-24T21:10:19.711Z,95306.87
2018-05-24T21:12:48.178Z,95311.88
2018-05-24T21:15:16.633Z,95309.06
2018-05-24T21:17:45.118Z,95305.61
2018-05-24T21:20:14.534Z,95315.38
2018-05-24T21:22:42.889Z,95314.27
2018-05-24T21:25:11.399Z,95312.95
2018-05-24T21:27:39.874Z,95310.44
2018-05-24T21:30:08.313Z,95306.28
2018-05-24T21:32:36.750Z,95306.56
2018-05-24T21:35:05.131Z,95304.36
2018-05-24T21:37:33.496Z,95306.48
2018-05-24T21:40:02.915Z,95304.70
2018-05-24T21:42:31.365Z,95304.44
2018-05-24T21:44:59.742Z,95299.11
2018-05-24T21:47:28.147Z,95296.58
2018-05-24T21:49:56.605Z,95297.53
2018-05-24T21:52:24.997Z,95301.94
2018-05-24T21:54:53.380Z,95298.72
2018-05-24T21:57:21.738Z,95300.90
2018-05-24T21:59:50.168Z,95297.44
2018-05-24T22:02:18.592Z,95294.91
2018-05-24T22:04:46.969Z,95293.36
2018-05-24T22:07:15.335Z,95294.98
2018-05-24T22:09:43.735Z,95295.74
2018-05-24T22:12:12.111Z,95287.66
2018-05-24T22:14:40.609Z,95291.56
2018-05-24T22:17:09.134Z,95293.96
2018-05-24T22:19:37.441Z,95285.36
2018-05-24T22:22:05.889Z,95292.81
2018-05-24T22:24:34.274Z,95294.53
2018-05-24T22:27:02.637Z,95290.83
2018-05-24T22:29:31.088Z,95292.03
2018-05-24T22:32:03.280Z,95289.31
2018-05-24T22:34:32.454Z,95284.28
2018-05-24T22:37:00.888Z,95286.41
2018-05-24T22:39:29.294Z,95291.03
2018-05-24T22:41:57.662Z,95290.65
2018-05-24T22:44:26.044Z,95293.09
2018-05-24T22:46:54.433Z,95292.39
2018-05-24T22:49:22.804Z,95291.48
2018-05-24T22:51:51.331Z,95297.38
2018-05-24T22:54:19.735Z,95293.84
2018-05-24T22:56:48.109Z,95288.56
2018-05-24T22:59:16.607Z,95288.05
2018-05-24T23:01:48.442Z,95287.41
2018-05-24T23:04:16.916Z,95292.75
2018-05-24T23:06:45.342Z,95289.73
2018-05-24T23:09:13.827Z,95286.28
2018-05-24T23:11:42.184Z,95286.14
2018-05-24T23:14:10.619Z,95292.89
2018-05-24T23:16:39.104Z,95288.03
2018-05-24T23:19:07.543Z,95291.41
2018-05-24T23:21:35.965Z,95297.94
2018-05-24T23:24:04.352Z,95294.54
2018-05-24T23:26:32.706Z,95296.25
2018-05-24T23:29:01.085Z,95295.88
2018-05-24T23:31:29.498Z,95299.90
2018-05-24T23:33:58.068Z,95295.19
2018-05-24T23:36:26.500Z,95292.97
2018-05-24T23:38:54.860Z,95296.65
2018-05-24T23:41:23.399Z,95299.98
2018-05-24T23:43:51.869Z,95298.63
2018-05-24T23:46:20.225Z,95295.75
2018-05-24T23:48:49.410Z,95292.89
2018-05-24T23:51:17.804Z,95291.01
2018-05-24T23:53:46.175Z,95299.55
2018-05-24T23:56:14.604Z,95293.22
2018-05-24T23:58:43.103Z,95293.02
